Time;durP1;ratioP1;P1;durP2;ratioP2;P2;SDS_P1;SDS_P2;PMS_P1;PMS_P2;Temp;Humidity;BMP_temperature;BMP_pressure;BME280_temperature;BME280_humidity;BME280_pressure;Samples;Min_cycle;Max_cycle;Signal;HPM_P1;HPM_P2
2021/06/08 00:01:19;;;;;;;29.25;18.15;;;;;;;16.97;59.53;100533.89;2123289;83;27681;-58
2021/06/08 00:04:20;;;;;;;27.35;19.30;;;;;;;16.89;59.76;100527.66;2123631;83;28678;-59
2021/06/08 00:07:24;;;;;;;27.75;17.55;;;;;;;16.83;60.21;100532.14;2124045;83;31052;-59
2021/06/08 00:10:26;;;;;;;23.87;17.20;;;;;;;16.76;59.84;100520.91;2131351;83;33753;-59
2021/06/08 00:13:46;;;;;;;28.65;19.12;;;;;;;16.71;59.95;100525.80;2130371;83;27728;-58
2021/06/08 00:16:48;;;;;;;32.38;19.40;;;;;;;16.66;60.50;100523.41;2130409;83;27649;-59
2021/06/08 00:19:50;;;;;;;30.62;19.82;;;;;;;16.60;60.35;100525.69;2130780;83;28677;-59
2021/06/08 00:22:52;;;;;;;26.55;17.98;;;;;;;16.55;60.82;100523.31;2129715;83;31057;-59
2021/06/08 00:25:54;;;;;;;28.47;18.02;;;;;;;16.51;60.83;100523.15;2127847;83;34122;-59
2021/06/08 00:28:56;;;;;;;28.32;17.55;;;;;;;16.47;60.80;100525.22;2127140;83;30229;-60
2021/06/08 00:31:58;;;;;;;27.50;18.77;;;;;;;16.44;60.91;100523.23;2127670;83;27689;-60
2021/06/08 00:35:00;;;;;;;28.98;18.17;;;;;;;16.38;60.93;100526.73;2127061;83;30846;-59
2021/06/08 00:38:02;;;;;;;64.87;29.48;;;;;;;16.35;61.14;100535.05;2127934;83;32013;-59
2021/06/08 00:41:04;;;;;;;56.55;30.43;;;;;;;16.32;61.42;100533.91;2127367;83;33741;-59
2021/06/08 00:44:12;;;;;;;44.88;26.57;;;;;;;16.29;61.62;100538.68;2127519;83;29825;-59
2021/06/08 00:47:13;;;;;;;64.70;30.27;;;;;;;16.24;61.61;100528.19;2142902;83;27733;-62
2021/06/08 00:50:15;;;;;;;56.33;28.38;;;;;;;16.18;61.94;100525.44;2135497;83;29844;-62
2021/06/08 00:53:17;;;;;;;46.98;26.35;;;;;;;16.12;62.13;100532.61;2135925;83;31399;-60
2021/06/08 00:56:19;;;;;;;45.52;25.43;;;;;;;16.07;62.11;100529.34;2134628;83;34181;-59
2021/06/08 00:59:21;;;;;;;45.00;25.48;;;;;;;16.01;62.22;100523.89;2135399;83;30257;-59
2021/06/08 01:02:23;;;;;;;42.00;24.27;;;;;;;15.97;62.22;100531.81;2135790;83;27679;-59
2021/06/08 01:05:25;;;;;;;40.73;23.10;;;;;;;15.93;62.31;100536.58;2135812;83;29829;-59
2021/06/08 01:08:27;;;;;;;38.00;21.87;;;;;;;15.89;62.35;100528.30;2164934;81;32064;-58
2021/06/08 01:11:29;;;;;;;38.70;22.50;;;;;;;15.87;62.60;100529.38;2134103;82;34239;-59
2021/06/08 01:14:31;;;;;;;36.80;20.48;;;;;;;15.81;62.94;100527.94;2126947;83;28876;-59
2021/06/08 01:17:33;;;;;;;42.83;24.40;;;;;;;15.76;62.97;100520.62;2126726;83;27645;-59
2021/06/08 01:20:35;;;;;;;37.90;22.93;;;;;;;15.71;63.22;100520.09;2126647;83;29673;-58
2021/06/08 01:23:38;;;;;;;41.25;25.05;;;;;;;15.68;63.38;100515.73;2126884;83;32214;-59
2021/06/08 01:26:41;;;;;;;34.92;25.10;;;;;;;15.63;63.60;100515.20;2126892;83;33131;-59
2021/06/08 01:29:43;;;;;;;34.55;22.77;;;;;;;15.59;63.56;100515.88;2125782;83;28864;-59
2021/06/08 01:32:47;;;;;;;38.17;23.50;;;;;;;15.56;63.61;100513.38;2117254;83;27805;-67
2021/06/08 01:35:51;;;;;;;37.95;23.18;;;;;;;15.53;63.65;100514.08;2132902;83;28823;-59
2021/06/08 01:38:53;;;;;;;33.80;23.05;;;;;;;15.47;64.04;100508.61;2130652;83;32301;-63
2021/06/08 01:41:55;;;;;;;34.40;22.42;;;;;;;15.42;63.92;100514.32;2103060;84;33154;-69
2021/06/08 01:44:57;;;;;;;51.95;29.55;;;;;;;15.40;64.05;100520.77;2103409;84;30224;-63
2021/06/08 01:47:59;;;;;;;27.67;20.60;;;;;;;15.38;64.75;100528.98;2103578;84;27727;-64
2021/06/08 01:51:34;;;;;;;28.87;20.92;;;;;;;15.39;65.24;100529.86;2124214;83;29077;-65
2021/06/08 01:55:03;;;;;;;27.73;21.80;;;;;;;15.38;65.31;100519.53;2164422;82;32256;-59
2021/06/08 01:58:22;;;;;;;24.30;21.70;;;;;;;15.38;65.66;100522.73;2130489;83;32405;-60
2021/06/08 02:01:52;;;;;;;26.65;21.48;;;;;;;15.36;65.55;100517.41;2123798;83;29464;-59
2021/06/08 02:05:25;;;;;;;33.55;23.32;;;;;;;15.37;65.75;100529.95;2052583;86;27763;-62
2021/06/08 02:08:50;;;;;;;29.45;21.12;;;;;;;15.35;65.94;100534.58;2091244;85;29790;-65
2021/06/08 02:12:02;;;;;;;27.35;21.17;;;;;;;15.35;66.28;100529.18;2091530;85;31502;-62
2021/06/08 02:15:11;;;;;;;33.98;24.15;;;;;;;15.32;66.00;100526.20;2068757;86;34137;-60
2021/06/08 02:18:16;;;;;;;29.07;21.80;;;;;;;15.31;66.44;100535.27;2071615;85;29084;-62
2021/06/08 02:21:26;;;;;;;30.32;21.70;;;;;;;15.30;66.30;100519.20;2060816;86;27625;-64
2021/06/08 02:24:30;;;;;;;27.67;21.07;;;;;;;15.29;66.39;100530.95;2060421;86;29698;-64
2021/06/08 02:27:33;;;;;;;30.68;20.92;;;;;;;15.27;66.48;100522.09;2060565;86;31075;-60
2021/06/08 02:30:36;;;;;;;30.50;21.70;;;;;;;15.27;66.41;100530.19;2060739;86;33126;-59
2021/06/08 02:33:39;;;;;;;29.40;21.95;;;;;;;15.27;66.62;100532.88;2060800;86;29138;-61
2021/06/08 02:36:43;;;;;;;28.57;20.60;;;;;;;15.26;66.62;100531.16;2060771;86;27767;-64
2021/06/08 02:39:46;;;;;;;29.82;21.55;;;;;;;15.26;66.57;100540.09;2060613;86;28629;-73
2021/06/08 02:42:49;;;;;;;31.25;21.62;;;;;;;15.27;66.66;100539.13;2116505;83;31018;-63
2021/06/08 02:45:51;;;;;;;32.17;22.32;;;;;;;15.28;66.78;100533.27;2135125;83;34158;-76
2021/06/08 02:48:55;;;;;;;31.33;22.58;;;;;;;15.28;66.58;100534.62;2134916;83;29883;-73
2021/06/08 02:51:59;;;;;;;32.03;23.52;;;;;;;15.29;66.69;100539.05;2135284;83;27625;-75
2021/06/08 02:55:03;;;;;;;46.25;30.57;;;;;;;15.32;66.82;100537.01;2135367;83;28759;-71
2021/06/08 02:58:06;;;;;;;45.12;30.57;;;;;;;15.34;66.99;100537.77;2135150;83;31014;-71
2021/06/08 03:01:09;;;;;;;35.75;28.00;;;;;;;15.39;66.79;100537.97;2135097;83;33353;-71
2021/06/08 03:04:12;;;;;;;44.88;29.45;;;;;;;15.41;66.72;100539.59;2135372;83;29391;-63
2021/06/08 03:07:14;;;;;;;37.23;25.10;;;;;;;15.45;66.71;100546.98;2139149;83;27641;-67
2021/06/08 03:10:20;;;;;;;36.98;23.80;;;;;;;15.47;66.48;100549.95;2126619;83;29870;-60
2021/06/08 03:13:23;;;;;;;29.72;21.85;;;;;;;15.52;66.42;100547.44;2126236;83;31937;-75
2021/06/08 03:16:28;;;;;;;27.90;19.25;;;;;;;15.55;66.30;100548.59;2137258;83;33381;-69
2021/06/08 03:19:33;;;;;;;24.80;19.30;;;;;;;15.59;66.19;100555.53;2164558;82;29854;-72
2021/06/08 03:22:35;;;;;;;24.15;17.45;;;;;;;15.63;66.04;100563.32;2132068;83;27713;-63
2021/06/08 03:25:38;;;;;;;20.37;16.62;;;;;;;15.69;65.89;100571.99;2128855;83;29513;-73
2021/06/08 03:28:41;;;;;;;25.65;17.48;;;;;;;15.73;65.77;100559.98;2123053;83;31904;-75
2021/06/08 03:31:46;;;;;;;26.62;16.50;;;;;;;15.78;65.70;100566.84;2123023;83;34225;-74
2021/06/08 03:34:47;;;;;;;;;;;;;;;15.82;65.50;100574.24;2142237;83;29014;-64
2021/06/08 03:37:49;;;;;;;21.00;16.17;;;;;;;15.88;65.42;100575.69;2128314;83;27677;-68
2021/06/08 03:40:56;;;;;;;22.20;16.75;;;;;;;15.91;65.29;100572.79;2137066;82;29889;-68
2021/06/08 03:44:04;;;;;;;24.98;17.32;;;;;;;15.99;65.24;100574.47;2132240;83;31034;-74
2021/06/08 03:47:15;;;;;;;20.20;15.72;;;;;;;16.05;65.03;100571.86;2125147;83;30228;-74
2021/06/08 03:50:21;;;;;;;21.12;14.85;;;;;;;16.11;64.77;100576.83;2139349;83;29015;-73
2021/06/08 03:53:28;;;;;;;21.45;14.70;;;;;;;16.17;64.63;100575.06;2138804;83;28214;-63
2021/06/08 03:56:35;;;;;;;22.27;15.80;;;;;;;16.23;64.53;100573.27;2151324;82;28691;-70
2021/06/08 03:59:38;;;;;;;27.37;17.45;;;;;;;16.31;64.36;100575.94;2079590;83;32316;-74
2021/06/08 04:02:40;;;;;;;27.30;17.27;;;;;;;16.38;64.11;100578.11;2081236;83;33192;-75
2021/06/08 04:05:47;;;;;;;22.42;15.58;;;;;;;16.44;63.75;100575.95;2075569;84;30322;-75
2021/06/08 04:08:49;;;;;;;22.73;14.73;;;;;;;16.51;63.66;100578.12;2143493;82;27829;-71
2021/06/08 04:11:52;;;;;;;17.70;13.43;;;;;;;16.60;63.49;100579.78;2132967;82;29019;-75
2021/06/08 04:14:55;;;;;;;18.42;12.93;;;;;;;16.68;63.18;100581.48;2127762;83;31927;-75
2021/06/08 04:17:57;;;;;;;15.40;12.80;;;;;;;16.76;62.97;100580.42;2127569;83;33841;-74
2021/06/08 04:20:59;;;;;;;17.17;12.70;;;;;;;16.85;62.74;100588.38;2127970;83;29373;-73
2021/06/08 04:24:06;;;;;;;17.65;12.33;;;;;;;16.93;62.70;100586.00;2127527;83;27672;-74
2021/06/08 04:27:08;;;;;;;21.52;13.48;;;;;;;17.04;62.51;100586.62;2127767;83;28710;-73
2021/06/08 04:30:14;;;;;;;18.62;13.80;;;;;;;17.16;62.40;100584.83;2127567;83;31920;-73
2021/06/08 04:33:22;;;;;;;21.65;13.95;;;;;;;17.29;62.12;100591.08;2166042;82;33948;-68
2021/06/08 04:36:25;;;;;;;17.98;11.90;;;;;;;17.45;62.00;100592.68;2149707;82;29082;-74
2021/06/08 04:39:28;;;;;;;17.00;11.40;;;;;;;17.63;61.69;100593.14;2166166;82;28154;-72
2021/06/08 04:42:30;;;;;;;13.93;10.50;;;;;;;17.82;61.59;100591.25;2149472;82;28698;-65
2021/06/08 04:45:33;;;;;;;15.58;11.40;;;;;;;18.39;61.47;100594.20;2127666;83;33121;-68
2021/06/08 04:48:35;;;;;;;13.98;11.05;;;;;;;19.35;60.93;100593.41;2127767;83;35096;-74
2021/06/08 04:51:40;;;;;;;14.28;10.95;;;;;;;20.42;60.26;100592.64;2127491;83;29732;-59
2021/06/08 04:54:42;;;;;;;19.17;9.48;;;;;;;21.54;58.58;100592.34;2127610;83;27822;-65
2021/06/08 04:57:46;;;;;;;14.93;9.35;;;;;;;22.64;57.24;100588.98;2127540;83;29474;-68
2021/06/08 05:01:29;;;;;;;18.05;9.35;;;;;;;23.66;55.79;100583.13;2125982;83;31232;-72
2021/06/08 05:04:35;;;;;;;10.55;9.45;;;;;;;24.67;54.38;100580.22;2164981;82;32989;-71
2021/06/08 05:08:22;;;;;;;14.65;9.73;;;;;;;25.72;51.72;100588.75;2126993;82;29010;-73
2021/06/08 05:11:57;;;;;;;10.98;8.90;;;;;;;25.75;50.60;100589.79;2128443;83;27720;-66
2021/06/08 05:15:05;;;;;;;12.28;9.13;;;;;;;25.68;49.60;100587.36;2130540;83;28813;-71
2021/06/08 05:18:37;;;;;;;13.58;9.08;;;;;;;25.49;48.34;100590.74;2126225;82;31996;-73
2021/06/08 05:22:19;;;;;;;10.20;8.78;;;;;;;25.79;47.56;100589.80;2070020;84;28199;-72
2021/06/08 05:25:40;;;;;;;14.15;8.78;;;;;;;26.40;46.83;100590.88;2007341;84;27800;-62
2021/06/08 05:27:51;;;;;;;15.93;8.57;;;;;;;27.08;45.58;100594.69;2007879;83;27764;-68
2021/06/08 05:34:24;;;;;;;13.62;9.20;;;;;;;27.95;43.77;100590.12;1922588;91;28004;-71
2021/06/08 05:37:17;;;;;;;11.53;8.30;;;;;;;28.41;43.20;100594.77;1885018;90;27981;-62
2021/06/08 05:40:19;;;;;;;15.45;8.50;;;;;;;28.56;42.01;100594.27;1890567;94;29974;-65
2021/06/08 05:43:21;;;;;;;12.20;9.05;;;;;;;28.53;41.46;100600.16;1929071;92;27810;-58
2021/06/08 05:46:28;;;;;;;11.60;10.08;;;;;;;28.30;40.87;100598.82;1955128;90;29494;-60
2021/06/08 05:49:31;;;;;;;17.30;10.08;;;;;;;27.99;40.49;100599.20;1934591;90;31054;-57
2021/06/08 05:52:34;;;;;;;10.77;9.20;;;;;;;27.85;40.32;100605.00;1945566;90;33165;-59
2021/06/08 05:55:37;;;;;;;10.30;9.15;;;;;;;28.26;40.01;100603.86;1928361;92;29033;-60
2021/06/08 05:58:39;;;;;;;15.68;8.70;;;;;;;28.86;39.78;100607.27;1900529;93;27768;-59
2021/06/08 06:01:41;;;;;;;13.25;8.98;;;;;;;29.46;38.85;100607.25;1902394;92;29910;-60
2021/06/08 06:04:46;;;;;;;11.05;8.90;;;;;;;29.94;38.17;100616.41;1956394;90;30876;-60
2021/06/08 06:07:49;;;;;;;16.75;8.75;;;;;;;30.39;37.43;100610.16;1904515;92;34186;-60
2021/06/08 06:10:51;;;;;;;13.80;8.80;;;;;;;30.87;36.59;100602.54;1951320;86;29831;-60
2021/06/08 06:14:04;;;;;;;13.05;8.05;;;;;;;31.26;35.84;100611.32;2044469;86;27651;-59
2021/06/08 06:17:08;;;;;;;11.12;7.83;;;;;;;31.62;35.32;100608.77;2067760;86;28715;-59
2021/06/08 06:20:11;;;;;;;;;;;;;;;31.92;34.31;100608.48;2070171;86;31052;-58
2021/06/08 06:23:19;;;;;;;16.35;7.97;;;;;;;32.15;33.58;100613.30;2067708;84;33900;-57
2021/06/08 06:26:28;;;;;;;14.33;8.30;;;;;;;32.34;33.10;100606.09;2067696;86;30151;-59
2021/06/08 06:29:30;;;;;;;8.88;7.97;;;;;;;32.56;33.01;100606.71;2067176;86;27577;-59
2021/06/08 06:32:33;;;;;;;14.40;7.65;;;;;;;32.89;32.42;100612.77;2067215;86;28154;-60
2021/06/08 06:35:35;;;;;;;9.85;7.42;;;;;;;33.32;31.98;100617.79;2067818;86;31707;-59
2021/06/08 06:38:37;;;;;;;12.78;8.28;;;;;;;33.60;31.40;100616.62;2089009;84;32971;-60
2021/06/08 06:41:42;;;;;;;9.13;7.70;;;;;;;33.84;30.76;100609.11;2086289;84;30023;-59
2021/06/08 06:44:46;;;;;;;10.80;8.08;;;;;;;33.90;30.09;100614.66;2078741;85;27749;-58
2021/06/08 06:47:50;;;;;;;15.93;7.50;;;;;;;34.01;29.87;100612.22;2084782;85;27801;-58
2021/06/08 06:50:53;;;;;;;11.38;7.58;;;;;;;34.08;29.44;100616.69;2093361;85;31881;-57
2021/06/08 06:53:56;;;;;;;9.93;7.92;;;;;;;34.06;28.73;100616.58;2083824;85;34087;-58
2021/06/08 06:57:01;;;;;;;10.90;7.60;;;;;;;34.05;29.11;100614.35;2077288;85;29252;-58
2021/06/08 07:00:06;;;;;;;8.55;7.60;;;;;;;34.14;28.59;100607.98;2076175;85;27659;-59
2021/06/08 07:03:09;;;;;;;9.03;8.08;;;;;;;34.33;28.84;100608.88;2082174;85;28781;-59
2021/06/08 07:06:12;;;;;;;9.10;8.17;;;;;;;34.46;28.40;100610.74;2007233;87;30912;-59
2021/06/08 07:09:15;;;;;;;13.78;8.48;;;;;;;34.57;28.31;100616.63;2014703;87;33206;-59
2021/06/08 07:12:21;;;;;;;16.60;8.40;;;;;;;34.72;28.03;100615.73;2047749;85;30335;-58
2021/06/08 07:15:27;;;;;;;15.50;9.35;;;;;;;34.90;28.14;100619.62;2062056;85;27668;-60
2021/06/08 07:18:29;;;;;;;9.38;8.40;;;;;;;34.96;27.84;100611.78;2060163;86;28656;-60
2021/06/08 07:21:31;;;;;;;9.20;6.92;;;;;;;35.13;27.70;100612.00;2059913;86;31721;-59
2021/06/08 07:24:34;;;;;;;10.65;8.88;;;;;;;35.41;27.97;100618.97;2079456;85;32904;-59
2021/06/08 07:27:38;;;;;;;11.83;8.45;;;;;;;35.53;26.89;100613.46;2064582;85;29815;-59
2021/06/08 07:30:42;;;;;;;12.33;8.60;;;;;;;35.51;27.05;100616.50;2032023;87;27710;-67
2021/06/08 07:33:56;;;;;;;12.95;9.43;;;;;;;35.62;26.86;100619.03;2061546;84;28727;-60
2021/06/08 07:36:58;;;;;;;12.70;8.80;;;;;;;35.55;26.76;100619.13;2076105;85;32256;-59
2021/06/08 07:40:09;;;;;;;14.65;9.33;;;;;;;35.42;26.50;100620.11;2066848;85;33061;-59
2021/06/08 07:43:12;;;;;;;16.40;10.00;;;;;;;35.39;26.41;100614.17;2065839;86;29084;-59
2021/06/08 07:46:17;;;;;;;10.63;9.43;;;;;;;35.36;26.23;100617.41;2066038;86;27790;-59
2021/06/08 07:49:22;;;;;;;10.35;8.90;;;;;;;35.31;26.33;100616.73;2066953;85;28641;-59
2021/06/08 07:52:24;;;;;;;13.28;10.05;;;;;;;35.25;26.26;100613.47;2076190;85;31327;-60
2021/06/08 07:55:26;;;;;;;13.75;10.75;;;;;;;35.24;26.22;100610.37;2066472;86;32979;-59
2021/06/08 07:58:28;;;;;;;11.80;9.73;;;;;;;35.23;25.58;100616.50;2066362;86;29053;-60
2021/06/08 08:01:32;;;;;;;10.63;9.60;;;;;;;35.07;25.97;100615.73;2066448;86;27697;-59
2021/06/08 08:04:38;;;;;;;11.88;9.00;;;;;;;34.96;25.65;100613.17;2080278;84;28633;-59
2021/06/08 08:07:40;;;;;;;8.63;7.70;;;;;;;34.77;26.10;100615.03;2052372;84;31205;-59
2021/06/08 08:10:42;;;;;;;7.42;6.70;;;;;;;34.77;25.24;100617.30;2034549;85;35194;-59
2021/06/08 08:13:51;;;;;;;10.10;6.85;;;;;;;34.79;24.94;100614.27;2065174;85;29977;-59
2021/06/08 08:16:57;;;;;;;7.67;6.83;;;;;;;34.79;24.34;100629.05;2069751;85;28380;-59
2021/06/08 08:20:01;;;;;;;8.65;6.78;;;;;;;34.73;24.19;100624.95;2067499;85;29047;-60
2021/06/08 08:23:03;;;;;;;9.28;7.62;;;;;;;34.60;24.36;100621.74;2045810;86;31921;-59
2021/06/08 08:26:07;;;;;;;9.00;7.65;;;;;;;34.39;24.37;100623.29;2053315;86;33517;-60
2021/06/08 08:29:09;;;;;;;8.28;7.30;;;;;;;34.27;24.43;100615.89;2049603;86;29841;-59
2021/06/08 08:32:12;;;;;;;12.37;6.03;;;;;;;34.05;24.13;100622.69;2059802;86;28312;-59
2021/06/08 08:35:14;;;;;;;10.13;5.50;;;;;;;33.85;24.98;100626.09;1993479;88;29545;-60
2021/06/08 08:38:16;;;;;;;7.92;6.17;;;;;;;33.83;24.59;100633.80;2059596;84;32630;-60
2021/06/08 08:41:20;;;;;;;6.65;6.00;;;;;;;33.52;24.01;100637.69;2039428;86;34198;-59
2021/06/08 08:44:21;;;;;;;;;;;;;;;33.11;24.91;100627.23;2005726;87;29031;-59
2021/06/08 08:47:23;;;;;;;8.90;6.10;;;;;;;33.09;25.41;100626.63;2071489;84;28380;-59
2021/06/08 08:50:26;;;;;;;8.50;7.10;;;;;;;33.00;25.75;100628.78;2066236;84;28401;-60
2021/06/08 08:53:28;;;;;;;8.23;7.53;;;;;;;32.99;25.73;100623.43;2063296;84;30306;-59
2021/06/08 08:56:36;;;;;;;12.23;6.85;;;;;;;32.94;26.17;100628.77;2058986;86;33900;-59
2021/06/08 08:59:38;;;;;;;8.55;6.10;;;;;;;32.71;25.75;100630.08;2059080;86;29008;-58
2021/06/08 09:02:40;;;;;;;8.15;6.62;;;;;;;32.53;25.87;100624.64;2058331;86;27740;-57
2021/06/08 09:05:43;;;;;;;7.20;6.58;;;;;;;32.37;25.76;100619.53;2058138;86;29974;-58
2021/06/08 09:08:46;;;;;;;6.80;6.20;;;;;;;32.12;26.18;100620.10;2062330;86;45414;-59
2021/06/08 09:11:49;;;;;;;13.20;6.50;;;;;;;32.00;26.48;100627.34;2065882;86;33901;-60
2021/06/08 09:14:51;;;;;;;8.50;5.83;;;;;;;31.90;26.76;100616.14;2066311;86;30037;-57
2021/06/08 09:17:58;;;;;;;8.05;6.12;;;;;;;31.74;26.08;100622.91;2086608;84;27726;-58
2021/06/08 09:21:17;;;;;;;7.62;5.37;;;;;;;31.47;26.58;100631.11;2092668;84;29618;-59
2021/06/08 09:24:26;;;;;;;8.75;6.47;;;;;;;31.36;27.13;100626.14;2075519;85;31169;-59
2021/06/08 09:27:29;;;;;;;11.95;5.80;;;;;;;31.24;27.01;100623.64;2084252;85;34346;-59
2021/06/08 09:33:58;;;;;;;9.10;5.08;;;;;;;31.14;27.18;100625.39;2017509;88;28424;-60
2021/06/08 09:37:06;;;;;;;5.25;4.33;;;;;;;31.01;26.99;100631.70;1997159;88;29522;-59
2021/06/08 09:40:25;;;;;;;5.08;3.75;;;;;;;30.84;27.13;100633.91;2011021;88;31046;-59
2021/06/08 09:43:27;;;;;;;7.55;4.37;;;;;;;30.69;26.70;100623.81;2011380;87;33787;-60
2021/06/08 09:46:33;;;;;;;4.95;4.50;;;;;;;30.52;26.85;100616.84;2004560;87;30384;-59
2021/06/08 09:49:38;;;;;;;5.55;4.30;;;;;;;30.34;27.02;100618.18;2007601;86;27750;-60
2021/06/08 09:52:39;;;;;;;5.60;4.50;;;;;;;30.16;26.99;100620.05;2006902;86;28638;-60
2021/06/08 09:56:04;;;;;;;7.03;4.72;;;;;;;29.95;27.45;100615.36;2005819;88;31074;-60
2021/06/08 09:59:06;;;;;;;;;;;;;;;29.78;27.93;100616.11;2031062;86;32964;-61
2021/06/08 10:02:39;;;;;;;6.78;3.87;;;;;;;29.55;28.52;100608.83;2088764;83;30288;-60
2021/06/08 10:05:41;;;;;;;4.62;3.80;;;;;;;29.38;28.13;100617.34;2098611;83;27702;-60
2021/06/08 10:08:59;;;;;;;4.90;4.15;;;;;;;29.20;28.33;100616.34;2080953;84;28776;-61
2021/06/08 10:12:06;;;;;;;4.80;4.15;;;;;;;29.08;28.52;100606.84;2075517;84;31036;-59
2021/06/08 10:15:11;;;;;;;5.37;3.98;;;;;;;28.94;28.41;100605.28;2077408;84;32976;-59
2021/06/08 10:18:13;;;;;;;3.37;3.08;;;;;;;28.90;28.53;100605.83;2088218;84;29768;-61
2021/06/08 10:21:16;;;;;;;5.67;3.30;;;;;;;28.87;28.32;100601.55;2084200;84;27593;-62
2021/06/08 10:24:24;;;;;;;3.53;2.93;;;;;;;28.83;28.54;100604.89;2092194;84;29892;-60
2021/06/08 10:27:26;;;;;;;3.52;3.10;;;;;;;28.76;28.42;100602.87;2114676;83;31811;-59
2021/06/08 10:30:29;;;;;;;4.75;3.60;;;;;;;28.63;27.98;100603.48;2138158;83;33714;-60
2021/06/08 10:33:31;;;;;;;3.47;3.17;;;;;;;28.47;27.75;100604.52;2101503;83;29852;-59
2021/06/08 10:36:35;;;;;;;4.55;2.77;;;;;;;28.21;27.65;100599.41;2086230;84;27727;-69
2021/06/08 10:39:37;;;;;;;3.67;2.95;;;;;;;28.07;27.86;100603.78;2067931;86;28655;-68
2021/06/08 10:42:39;;;;;;;5.10;2.70;;;;;;;28.01;28.21;100602.63;2068040;86;30979;-70
2021/06/08 10:45:42;;;;;;;2.62;2.42;;;;;;;27.93;27.83;100597.70;2074574;84;33760;-66
2021/06/08 10:48:47;;;;;;;5.72;2.90;;;;;;;27.85;28.19;100594.48;2083854;85;29097;-67
2021/06/08 10:52:04;;;;;;;4.67;2.65;;;;;;;27.83;28.21;100593.81;2084191;85;27671;-66
2021/06/08 10:55:09;;;;;;;4.92;2.83;;;;;;;27.81;28.12;100599.52;2086462;84;29250;-67
2021/06/08 10:58:11;;;;;;;3.72;2.90;;;;;;;27.80;28.35;100597.80;2104372;84;31679;-66
2021/06/08 11:01:41;;;;;;;9.43;2.67;;;;;;;27.80;27.71;100586.78;2104384;84;33636;-65
2021/06/08 11:04:53;;;;;;;2.55;2.35;;;;;;;27.78;27.58;100598.49;2104190;84;29861;-68
2021/06/08 11:07:55;;;;;;;2.83;2.45;;;;;;;27.74;27.30;100595.77;2120007;84;27637;-66
2021/06/08 11:10:58;;;;;;;4.85;2.42;;;;;;;27.70;27.67;100591.14;2114006;84;28639;-59
2021/06/08 11:14:00;;;;;;;2.85;2.10;;;;;;;27.71;27.21;100594.77;2113960;84;31394;-58
2021/06/08 11:17:07;;;;;;;7.45;2.90;;;;;;;27.68;27.65;100579.45;2119165;84;34374;-58
2021/06/08 11:20:18;;;;;;;3.65;3.20;;;;;;;27.62;27.27;100585.71;2118686;84;29077;-58
2021/06/08 11:23:42;;;;;;;6.53;3.40;;;;;;;27.59;27.81;100586.06;2118772;84;27761;-58
2021/06/08 11:26:50;;;;;;;5.70;2.83;;;;;;;27.55;26.83;100580.58;2119115;84;29053;-58
2021/06/08 11:30:00;;;;;;;3.65;3.30;;;;;;;27.48;27.70;100568.56;2089741;84;31136;-58
2021/06/08 11:33:09;;;;;;;3.40;3.10;;;;;;;27.46;27.75;100570.14;2120412;82;33337;-58
2021/06/08 11:36:43;;;;;;;3.37;2.85;;;;;;;27.44;28.06;100576.30;2115013;83;28479;-58
2021/06/08 11:39:46;;;;;;;5.03;2.75;;;;;;;27.44;28.27;100570.80;2103602;84;27955;-58
2021/06/08 11:42:48;;;;;;;3.90;3.15;;;;;;;27.47;28.32;100572.39;2096978;84;29466;-58
2021/06/08 11:46:12;;;;;;;3.40;2.98;;;;;;;27.44;28.33;100578.55;2105374;83;31921;-58
2021/06/08 11:49:18;;;;;;;6.62;3.58;;;;;;;27.39;28.75;100573.22;2114912;83;32935;-58
2021/06/08 11:52:20;;;;;;;5.12;3.00;;;;;;;27.39;28.95;100571.34;2065652;85;29014;-62
2021/06/08 11:55:24;;;;;;;3.95;3.40;;;;;;;27.37;28.32;100572.05;2089813;83;27676;-61
2021/06/08 11:58:36;;;;;;;7.20;3.50;;;;;;;27.37;28.61;100562.95;2127876;83;28866;-59
2021/06/08 12:01:44;;;;;;;5.90;3.15;;;;;;;27.37;29.01;100565.70;2106309;83;31109;-58
2021/06/08 12:05:08;;;;;;;5.12;3.05;;;;;;;27.38;28.45;100573.77;2096940;84;33011;-59
2021/06/08 12:08:13;;;;;;;6.85;3.55;;;;;;;27.39;29.24;100570.48;2088547;83;29016;-59
2021/06/08 12:11:17;;;;;;;3.85;3.05;;;;;;;27.41;28.44;100569.28;2061608;85;27654;-59
2021/06/08 12:14:20;;;;;;;3.57;3.23;;;;;;;27.37;28.15;100572.58;2084778;85;29491;-59
2021/06/08 12:17:24;;;;;;;7.85;3.25;;;;;;;27.33;28.54;100567.93;2091757;83;31031;-59
2021/06/08 12:20:26;;;;;;;5.53;3.37;;;;;;;27.32;28.83;100560.71;2124429;83;32952;-60
2021/06/08 12:23:32;;;;;;;4.58;3.42;;;;;;;27.35;28.37;100559.52;2124346;83;29914;-58
2021/06/08 12:26:37;;;;;;;3.92;3.62;;;;;;;27.35;28.34;100562.27;2102847;83;27598;-60
2021/06/08 12:29:42;;;;;;;;;;;;;;;27.33;28.10;100564.34;2103814;83;28705;-59
2021/06/08 12:32:45;;;;;;;;;;;;;;;27.15;28.37;100560.80;2105131;84;32115;-60
2021/06/08 12:35:47;;;;;;;4.62;3.35;;;;;;;27.09;28.90;100551.91;2095127;84;32832;-59
2021/06/08 12:39:03;;;;;;;4.85;3.60;;;;;;;27.13;29.19;100552.39;2111214;83;29209;-60
2021/06/08 12:42:19;;;;;;;9.40;3.80;;;;;;;27.18;29.18;100544.47;2107733;84;28261;-59
2021/06/08 12:45:27;;;;;;;5.30;3.40;;;;;;;27.20;29.18;100547.91;2110878;84;29333;-61
2021/06/08 12:48:32;;;;;;;6.47;3.50;;;;;;;27.21;29.51;100546.00;2110517;83;27705;-60
2021/06/08 12:51:38;;;;;;;9.25;4.40;;;;;;;27.22;29.72;100545.80;2111079;84;33333;-60
2021/06/08 12:54:47;;;;;;;8.63;7.20;;;;;;;27.25;29.85;100539.11;2110212;84;30051;-60
2021/06/08 12:57:50;;;;;;;9.10;3.70;;;;;;;27.27;29.84;100544.75;2111210;84;27589;-60
2021/06/08 13:00:55;;;;;;;5.00;3.72;;;;;;;27.26;29.35;100543.03;2110504;83;29496;-60
2021/06/08 13:03:59;;;;;;;4.12;3.35;;;;;;;27.26;29.56;100556.80;2110848;83;31045;-60
2021/06/08 13:07:03;;;;;;;4.45;3.22;;;;;;;27.18;29.05;100543.09;2091596;84;33000;-61
2021/06/08 13:10:11;;;;;;;5.20;3.10;;;;;;;27.06;27.88;100544.50;2110129;84;29821;-60
2021/06/08 13:13:15;;;;;;;4.45;3.27;;;;;;;26.96;28.09;100531.84;2110600;84;27731;-59
2021/06/08 13:16:34;;;;;;;3.02;2.65;;;;;;;26.95;28.31;100539.75;2110870;84;29483;-60
2021/06/08 13:19:37;;;;;;;5.53;3.40;;;;;;;26.96;28.13;100545.59;2077808;85;31836;-61
2021/06/08 13:22:40;;;;;;;3.72;3.42;;;;;;;26.97;28.08;100536.84;2077750;85;32583;-60
2021/06/08 13:25:45;;;;;;;4.22;3.12;;;;;;;26.96;28.26;100534.59;2077815;84;28886;-58
2021/06/08 13:28:47;;;;;;;3.90;3.25;;;;;;;26.96;28.90;100531.84;2076594;84;27688;-59
2021/06/08 13:31:58;;;;;;;3.98;2.98;;;;;;;26.96;27.94;100534.59;2076778;85;28688;-61
2021/06/08 13:35:14;;;;;;;5.95;3.25;;;;;;;26.92;28.45;100530.48;2095496;84;31271;-62
2021/06/08 13:38:20;;;;;;;5.75;4.10;;;;;;;26.92;28.29;100532.38;2041671;87;33168;-60
2021/06/08 13:41:39;;;;;;;5.55;3.67;;;;;;;26.91;28.57;100528.77;2073666;85;29773;-59
2021/06/08 13:45:03;;;;;;;7.40;3.00;;;;;;;26.93;28.69;100524.48;2051157;85;27723;-59
2021/06/08 13:48:47;;;;;;;7.33;3.87;;;;;;;26.96;28.85;100525.50;1984568;88;28881;-59
2021/06/08 13:51:50;;;;;;;5.60;3.30;;;;;;;26.95;28.49;100524.63;2074445;85;31016;-60
2021/06/08 13:54:52;;;;;;;3.70;3.17;;;;;;;26.95;28.05;100527.91;2075581;85;34358;-59
2021/06/08 14:01:36;;;;;;;6.45;3.52;;;;;;;26.93;28.54;100525.32;2114644;84;27856;-59
2021/06/08 14:04:48;;;;;;;6.75;3.58;;;;;;;26.89;28.47;100521.73;2093907;85;28649;-58
2021/06/08 14:07:51;;;;;;;5.92;3.37;;;;;;;26.91;28.84;100527.39;2095861;85;31065;-59
2021/06/08 14:10:57;;;;;;;5.35;3.55;;;;;;;26.91;28.84;100527.39;2095534;85;33102;-59
2021/06/08 14:13:59;;;;;;;3.92;3.40;;;;;;;26.90;28.86;100525.67;2090134;85;29233;-58
2021/06/08 14:17:14;;;;;;;7.92;3.47;;;;;;;26.93;29.19;100518.98;2084205;85;27686;-57
2021/06/08 14:20:17;;;;;;;3.40;3.10;;;;;;;26.93;28.86;100520.36;2083801;85;28685;-58
2021/06/08 14:23:20;;;;;;;5.70;3.12;;;;;;;26.89;28.49;100510.20;2086623;85;31133;-58
2021/06/08 14:26:27;;;;;;;3.83;3.30;;;;;;;26.86;28.62;100519.34;2095826;85;32458;-59
2021/06/08 14:29:31;;;;;;;3.85;3.33;;;;;;;26.85;29.02;100521.25;2095649;85;30055;-59